createdAt,value
2019-05-11T00:01:57.853Z,94880.09
2019-05-11T00:04:26.522Z,94869.45
2019-05-11T00:06:55.057Z,94871.61
2019-05-11T00:09:23.522Z,94875.00
2019-05-11T00:11:52.116Z,94875.83
2019-05-11T00:14:20.580Z,94874.98
2019-05-11T00:16:49.135Z,94873.33
2019-05-11T00:19:17.600Z,94869.95
2019-05-11T00:21:46.322Z,94862.73
2019-05-11T00:24:14.865Z,94862.77
2019-05-11T00:26:43.692Z,94861.53
2019-05-11T00:29:12.292Z,94860.73
2019-05-11T00:31:40.925Z,94858.69
2019-05-11T00:34:09.537Z,94859.52
2019-05-11T00:36:38.108Z,94865.46
2019-05-11T00:39:08.339Z,94860.78
2019-05-11T00:41:36.878Z,94857.80
2019-05-11T00:44:05.515Z,94852.26
2019-05-11T00:46:34.219Z,94854.81
2019-05-11T00:49:03.224Z,94860.38
2019-05-11T00:51:31.939Z,94857.05
2019-05-11T00:54:00.557Z,94854.94
2019-05-11T00:56:29.202Z,94857.88
2019-05-11T00:58:57.843Z,94856.15
2019-05-11T01:01:26.723Z,94856.13
2019-05-11T01:03:55.417Z,94853.99
2019-05-11T01:06:24.374Z,94854.86
2019-05-11T01:08:52.832Z,94855.70
2019-05-11T01:11:21.439Z,94857.88
2019-05-11T01:13:50.015Z,94856.61
2019-05-11T01:16:18.625Z,94861.72
2019-05-11T01:18:47.175Z,94858.77
2019-05-11T01:21:15.713Z,94866.44
2019-05-11T01:23:44.328Z,94863.05
2019-05-11T01:26:12.928Z,94866.88
2019-05-11T01:28:41.464Z,94863.94
2019-05-11T01:31:10.182Z,94870.31
2019-05-11T01:33:38.783Z,94867.77
2019-05-11T01:36:07.297Z,94863.13
2019-05-11T01:38:35.938Z,94866.94
2019-05-11T01:41:04.578Z,94870.27
2019-05-11T01:43:33.124Z,94866.43
2019-05-11T01:46:01.793Z,94873.63
2019-05-11T01:48:31.811Z,94869.80
2019-05-11T01:51:00.561Z,94872.34
2019-05-11T01:53:29.037Z,94876.56
2019-05-11T01:55:57.578Z,94879.06
2019-05-11T01:58:26.191Z,94877.38
2019-05-11T02:00:54.740Z,94876.94
2019-05-11T02:03:23.278Z,94879.50
2019-05-11T02:05:51.851Z,94872.28
2019-05-11T02:08:20.418Z,94878.23
2019-05-11T02:10:49.038Z,94879.94
2019-05-11T02:13:19.187Z,94875.67
2019-05-11T02:15:47.792Z,94876.55
2019-05-11T02:18:16.476Z,94880.78
2019-05-11T02:20:45.083Z,94881.16
2019-05-11T02:23:13.693Z,94879.48
2019-05-11T02:25:42.226Z,94880.77
2019-05-11T02:28:10.775Z,94875.69
2019-05-11T02:30:39.320Z,94874.02
2019-05-11T02:33:07.957Z,94878.72
2019-05-11T02:35:36.651Z,94878.30
2019-05-11T02:38:05.298Z,94880.45
2019-05-11T02:40:34.066Z,94884.30
2019-05-11T02:43:02.627Z,94882.20
2019-05-11T02:45:37.285Z,94885.19
2019-05-11T02:48:06.214Z,94886.45
2019-05-11T02:50:37.332Z,94893.23
2019-05-11T02:53:07.038Z,94896.66
2019-05-11T02:55:36.683Z,94899.61
2019-05-11T02:58:07.064Z,94893.68
2019-05-11T03:00:40.768Z,94892.41
2019-05-11T03:03:09.722Z,94889.86
2019-05-11T03:05:38.321Z,94892.45
2019-05-11T03:08:06.955Z,94895.86
2019-05-11T03:10:35.573Z,94893.30
2019-05-11T03:13:04.553Z,94897.56
2019-05-11T03:15:33.193Z,94898.02
2019-05-11T03:18:01.828Z,94903.56
2019-05-11T03:20:30.434Z,94902.30
2019-05-11T03:22:59.304Z,94906.17
2019-05-11T03:25:27.834Z,94897.77
2019-05-11T03:27:56.468Z,94904.98
2019-05-11T03:30:25.083Z,94910.91
2019-05-11T03:32:53.760Z,94904.20
2019-05-11T03:35:22.324Z,94902.99
2019-05-11T03:37:50.887Z,94917.42
2019-05-11T03:40:19.724Z,94921.23
2019-05-11T03:42:48.248Z,94918.70
2019-05-11T03:45:17.152Z,94925.52
2019-05-11T03:47:45.743Z,94932.27
2019-05-11T03:50:15.140Z,94937.77
2019-05-11T03:52:43.699Z,94931.05
2019-05-11T03:55:12.708Z,94929.79
2019-05-11T03:57:41.255Z,94934.02
2019-05-11T04:00:11.088Z,94930.17
2019-05-11T04:02:39.736Z,94929.77
2019-05-11T04:05:08.674Z,94926.81
2019-05-11T04:07:37.311Z,94924.72
2019-05-11T04:10:07.312Z,94925.16
2019-05-11T04:12:36.008Z,94931.92
2019-05-11T04:15:09.243Z,94932.36
2019-05-11T04:17:37.853Z,94934.91
2019-05-11T04:20:06.964Z,94939.55
2019-05-11T04:22:35.576Z,94938.72
2019-05-11T04:25:05.227Z,94941.20
2019-05-11T04:27:33.868Z,94944.09
2019-05-11T04:30:02.504Z,94939.75
2019-05-11T04:32:31.246Z,94942.66
2019-05-11T04:34:59.852Z,94945.15
2019-05-11T04:37:28.557Z,94945.55
2019-05-11T04:39:57.029Z,94943.81
2019-05-11T04:42:25.543Z,94951.81
2019-05-11T04:44:54.283Z,94953.45
2019-05-11T04:47:22.897Z,94959.77
2019-05-11T04:49:51.549Z,94961.86
2019-05-11T04:52:20.292Z,94963.52
2019-05-11T04:54:48.835Z,94962.26
2019-05-11T04:57:17.384Z,94962.64
2019-05-11T04:59:46.024Z,94966.84
2019-05-11T05:02:14.703Z,94968.48
2019-05-11T05:04:43.243Z,94968.87
2019-05-11T05:07:12.345Z,94966.20
2019-05-11T05:09:42.967Z,94966.62
2019-05-11T05:12:13.998Z,94963.61
2019-05-11T05:14:41.471Z,94961.75
2019-05-11T05:17:10.096Z,94964.60
2019-05-11T05:19:38.723Z,94967.09
2019-05-11T05:22:07.253Z,94964.45
2019-05-11T05:24:35.868Z,94967.36
2019-05-11T05:27:04.480Z,94967.58
2019-05-11T05:29:33.074Z,94966.45
2019-05-11T05:32:01.570Z,94971.66
2019-05-11T05:34:30.274Z,94971.48
2019-05-11T05:36:58.823Z,94969.98
2019-05-11T05:39:27.405Z,94958.16
2019-05-11T05:41:57.398Z,94955.63
2019-05-11T05:44:27.955Z,94956.03
2019-05-11T05:46:57.006Z,94959.40
2019-05-11T05:49:25.586Z,94955.02
2019-05-11T05:51:57.987Z,94949.81
2019-05-11T05:54:24.421Z,94956.45
2019-05-11T05:56:52.892Z,94952.47
2019-05-11T05:59:21.365Z,94953.66
2019-05-11T06:01:49.835Z,94947.66
2019-05-11T06:04:18.381Z,94945.25
2019-05-11T06:06:46.844Z,94948.05
2019-05-11T06:09:15.451Z,94942.15
2019-05-11T06:11:44.039Z,94945.97
2019-05-11T06:14:13.327Z,94952.39
2019-05-11T06:16:41.902Z,94939.55
2019-05-11T06:19:10.780Z,94947.60
2019-05-11T06:21:39.314Z,94945.39
2019-05-11T06:24:08.660Z,94948.37
2019-05-11T06:26:37.762Z,94950.92
2019-05-11T06:29:06.438Z,94959.38
2019-05-11T06:31:34.993Z,94951.70
2019-05-11T06:34:03.605Z,94948.09
2019-05-11T06:36:32.259Z,94955.59
2019-05-11T06:39:00.726Z,94950.06
2019-05-11T06:41:29.342Z,94946.72
2019-05-11T06:44:01.666Z,94949.52
2019-05-11T06:46:28.132Z,94954.19
2019-05-11T06:48:56.829Z,94949.16
2019-05-11T06:51:25.457Z,94948.53
2019-05-11T06:53:54.035Z,94952.33
2019-05-11T06:56:22.585Z,94960.28
2019-05-11T06:58:51.205Z,94954.34
2019-05-11T07:01:19.813Z,94957.95
2019-05-11T07:03:48.317Z,94957.54
2019-05-11T07:06:16.882Z,94954.02
2019-05-11T07:08:45.342Z,94944.64
2019-05-11T07:11:13.948Z,94947.84
2019-05-11T07:13:42.491Z,94948.62
2019-05-11T07:16:11.043Z,94959.84
2019-05-11T07:18:39.643Z,94955.59
2019-05-11T07:21:08.158Z,94956.45
2019-05-11T07:23:36.794Z,94966.67
2019-05-11T07:26:05.437Z,94956.00
2019-05-11T07:28:34.063Z,94950.47
2019-05-11T07:31:02.625Z,94951.79
2019-05-11T07:33:31.236Z,94954.76
2019-05-11T07:35:59.761Z,94951.50
2019-05-11T07:38:28.280Z,94943.20
2019-05-11T07:40:58.279Z,94950.53
2019-05-11T07:43:28.866Z,94953.25
2019-05-11T07:45:58.451Z,94948.53
2019-05-11T07:48:27.999Z,94949.13
2019-05-11T07:50:58.445Z,94951.86
2019-05-11T07:53:27.987Z,94946.55
2019-05-11T07:55:57.781Z,94945.90
2019-05-11T07:58:28.479Z,94943.11
2019-05-11T08:00:58.145Z,94942.44
2019-05-11T08:03:28.353Z,94934.94
2019-05-11T08:05:58.270Z,94929.95
2019-05-11T08:08:28.420Z,94932.91
2019-05-11T08:10:58.672Z,94933.59
2019-05-11T08:13:28.239Z,94937.87
2019-05-11T08:15:57.863Z,94933.41
2019-05-11T08:18:28.239Z,94934.70
2019-05-11T08:20:58.278Z,94932.97
2019-05-11T08:23:28.517Z,94936.75
2019-05-11T08:25:58.153Z,94932.08
2019-05-11T08:28:28.787Z,94935.53
2019-05-11T08:30:57.885Z,94935.25
2019-05-11T08:33:28.419Z,94938.80
2019-05-11T08:35:58.311Z,94937.67
2019-05-11T08:38:28.539Z,94943.29
2019-05-11T08:40:59.014Z,94951.73
2019-05-11T08:43:28.640Z,94956.42
2019-05-11T08:45:57.968Z,94969.08
2019-05-11T08:48:28.325Z,94972.58
2019-05-11T08:50:58.257Z,94966.95
2019-05-11T08:53:28.399Z,94973.29
2019-05-11T08:55:58.827Z,94975.97
2019-05-11T08:58:27.933Z,94979.17
2019-05-11T09:00:58.236Z,94976.17
2019-05-11T09:03:28.430Z,94981.11
2019-05-11T09:05:57.954Z,94975.41
2019-05-11T09:08:28.287Z,94971.78
2019-05-11T09:10:58.196Z,94971.93
2019-05-11T09:13:27.987Z,94980.67
2019-05-11T09:15:58.853Z,94981.20
2019-05-11T09:18:27.995Z,94976.28
2019-05-11T09:20:57.726Z,94974.80
2019-05-11T09:23:34.515Z,94981.00
2019-05-11T09:25:58.356Z,94979.03
2019-05-11T09:28:29.280Z,94983.80
2019-05-11T09:30:57.936Z,94982.81
2019-05-11T09:33:28.465Z,94981.72
2019-05-11T09:35:58.425Z,94980.52
2019-05-11T09:38:27.747Z,94978.86
2019-05-11T09:40:58.566Z,94981.31
2019-05-11T09:43:28.374Z,94977.77
2019-05-11T09:45:58.272Z,94976.52
2019-05-11T09:48:28.422Z,94977.91
2019-05-11T09:50:58.773Z,94967.51
2019-05-11T09:53:28.361Z,94959.45
2019-05-11T09:55:58.665Z,94956.33
2019-05-11T09:58:28.063Z,94962.86
2019-05-11T10:00:58.611Z,94960.73
2019-05-11T10:03:28.111Z,94962.95
2019-05-11T10:05:57.985Z,94962.58
2019-05-11T10:08:28.608Z,94968.42
2019-05-11T10:10:58.048Z,94976.28
2019-05-11T10:13:27.856Z,94978.41
2019-05-11T10:16:04.561Z,94972.95
2019-05-11T10:18:28.150Z,94976.45
2019-05-11T10:20:58.667Z,94977.97
2019-05-11T10:23:27.936Z,94974.57
2019-05-11T10:25:58.595Z,94975.39
2019-05-11T10:28:34.900Z,94970.19
2019-05-11T10:31:03.427Z,94968.36
2019-05-11T10:33:31.899Z,94970.95
2019-05-11T10:36:03.134Z,94966.05
2019-05-11T10:38:30.698Z,94962.73
2019-05-11T10:40:59.323Z,94964.55
2019-05-11T10:43:28.860Z,94965.97
2019-05-11T10:45:58.808Z,94967.30
2019-05-11T10:48:28.340Z,94964.20
2019-05-11T10:50:57.622Z,94963.95
2019-05-11T10:53:27.888Z,94959.52
2019-05-11T10:55:58.186Z,94959.03
2019-05-11T10:58:28.573Z,94956.94
2019-05-11T11:00:58.194Z,94956.95
2019-05-11T11:03:28.375Z,94953.54
2019-05-11T11:05:58.115Z,94955.52
2019-05-11T11:08:27.839Z,94939.00
2019-05-11T11:10:58.602Z,94937.38
2019-05-11T11:13:28.099Z,94934.86
2019-05-11T11:15:58.201Z,94929.71
2019-05-11T11:18:28.771Z,94923.91
2019-05-11T11:20:58.082Z,94912.58
2019-05-11T11:23:28.452Z,94924.02
2019-05-11T11:25:58.552Z,94921.06
2019-05-11T11:28:28.004Z,94919.60
2019-05-11T11:30:58.433Z,94913.86
2019-05-11T11:33:27.698Z,94914.63
2019-05-11T11:35:57.952Z,94918.14
2019-05-11T11:38:28.568Z,94923.34
2019-05-11T11:40:58.727Z,94910.92
2019-05-11T11:43:28.775Z,94907.42
2019-05-11T11:45:58.080Z,94902.14
2019-05-11T11:48:28.551Z,94898.97
2019-05-11T11:50:58.537Z,94908.50
2019-05-11T11:53:27.964Z,94901.73
2019-05-11T11:55:58.760Z,94908.39
2019-05-11T11:58:27.767Z,94906.62
2019-05-11T12:00:58.553Z,94909.13
2019-05-11T12:03:27.720Z,94905.06
2019-05-11T12:05:58.139Z,94897.61
2019-05-11T12:08:28.262Z,94902.06
2019-05-11T12:10:58.926Z,94898.31
2019-05-11T12:13:29.504Z,94901.91
2019-05-11T12:15:58.466Z,94901.37
2019-05-11T12:18:28.647Z,94900.75
2019-05-11T12:20:58.611Z,94895.88
2019-05-11T12:23:28.508Z,94897.48
2019-05-11T12:25:58.066Z,94897.30
2019-05-11T12:28:27.610Z,94892.41
2019-05-11T12:30:58.438Z,94889.22
2019-05-11T12:33:27.936Z,94884.28
2019-05-11T12:35:58.692Z,94874.52
2019-05-11T12:38:27.729Z,94884.52
2019-05-11T12:40:57.960Z,94882.17
2019-05-11T12:43:27.769Z,94876.39
2019-05-11T12:45:58.583Z,94876.83
2019-05-11T12:48:28.469Z,94872.88
2019-05-11T12:50:58.834Z,94880.11
2019-05-11T12:53:28.005Z,94873.64
2019-05-11T12:55:58.821Z,94871.11
2019-05-11T12:58:28.078Z,94865.47
2019-05-11T13:00:58.655Z,94871.51
2019-05-11T13:03:27.915Z,94867.92
2019-05-11T13:05:58.526Z,94872.93
2019-05-11T13:08:27.792Z,94867.92
2019-05-11T13:10:58.414Z,94871.87
2019-05-11T13:13:28.630Z,94862.52
2019-05-11T13:15:58.546Z,94864.52
2019-05-11T13:18:27.997Z,94860.47
2019-05-11T13:20:58.789Z,94859.88
2019-05-11T13:23:27.764Z,94861.05
2019-05-11T13:25:58.567Z,94863.25
2019-05-11T13:28:28.401Z,94864.01
2019-05-11T13:30:57.909Z,94867.73
2019-05-11T13:33:27.990Z,94870.09
2019-05-11T13:35:57.866Z,94869.03
2019-05-11T13:38:28.306Z,94871.02
2019-05-11T13:40:59.079Z,94870.32
2019-05-11T13:43:28.130Z,94875.56
2019-05-11T13:45:58.400Z,94872.21
2019-05-11T13:48:28.109Z,94874.59
2019-05-11T13:50:58.435Z,94872.08
2019-05-11T13:53:27.653Z,94870.24
2019-05-11T13:55:58.695Z,94871.30
2019-05-11T13:58:46.067Z,94870.30
2019-05-11T14:01:14.676Z,94874.11
2019-05-11T14:03:43.282Z,94873.59
2019-05-11T14:06:11.852Z,94869.47
2019-05-11T14:08:40.315Z,94869.47
2019-05-11T14:11:08.987Z,94864.59
2019-05-11T14:13:38.679Z,94870.53
2019-05-11T14:16:08.100Z,94864.99
2019-05-11T14:18:38.628Z,94868.41
2019-05-11T14:21:08.006Z,94871.77
2019-05-11T14:23:38.857Z,94873.52
2019-05-11T14:26:08.444Z,94875.19
2019-05-11T14:28:37.821Z,94875.79
2019-05-11T14:31:08.198Z,94880.44
2019-05-11T14:33:38.600Z,94873.37
2019-05-11T14:36:08.609Z,94875.19
2019-05-11T14:38:38.115Z,94878.24
2019-05-11T14:41:07.773Z,94876.95
2019-05-11T14:43:38.329Z,94878.48
2019-05-11T14:46:08.577Z,94876.95
2019-05-11T14:48:38.948Z,94880.21
2019-05-11T14:51:08.510Z,94886.45
2019-05-11T14:53:37.811Z,94887.62
2019-05-11T14:56:08.259Z,94893.53
2019-05-11T14:58:38.648Z,94887.38
2019-05-11T15:01:08.909Z,94889.74
2019-05-11T15:03:38.071Z,94891.13
2019-05-11T15:06:08.310Z,94893.26
2019-05-11T15:08:38.727Z,94898.08
2019-05-11T15:11:08.283Z,94897.61
2019-05-11T15:13:38.231Z,94901.95
2019-05-11T15:16:08.082Z,94901.56
2019-05-11T15:18:41.761Z,94896.45
2019-05-11T15:21:08.289Z,94897.84
2019-05-11T15:23:37.855Z,94902.63
2019-05-11T15:26:09.580Z,94903.13
2019-05-11T15:28:37.996Z,94900.96
2019-05-11T15:31:08.069Z,94904.31
2019-05-11T15:33:38.348Z,94910.26
2019-05-11T15:36:07.647Z,94904.98
2019-05-11T15:38:37.845Z,94902.69
2019-05-11T15:41:08.600Z,94907.50
2019-05-11T15:43:38.805Z,94901.03
2019-05-11T15:46:07.673Z,94905.38
2019-05-11T15:48:51.855Z,94909.56
2019-05-11T15:51:08.115Z,94910.92
2019-05-11T15:53:37.118Z,94918.22
2019-05-11T15:56:06.305Z,94918.73
2019-05-11T15:58:37.673Z,94922.30
2019-05-11T16:01:07.938Z,94921.44
2019-05-11T16:03:36.793Z,94920.44
2019-05-11T16:06:07.658Z,94925.77
2019-05-11T16:08:37.667Z,94929.50
2019-05-11T16:11:08.160Z,94926.70
2019-05-11T16:13:37.724Z,94928.82
2019-05-11T16:16:06.597Z,94926.20
2019-05-11T16:18:35.167Z,94928.25
2019-05-11T16:21:03.744Z,94930.80
2019-05-11T16:23:32.226Z,94931.61
2019-05-11T16:26:01.023Z,94930.59
2019-05-11T16:28:30.844Z,94931.56
2019-05-11T16:30:59.615Z,94930.11
2019-05-11T16:33:28.158Z,94933.27
2019-05-11T16:36:00.511Z,94925.66
2019-05-11T16:38:29.048Z,94932.55
2019-05-11T16:40:58.461Z,94933.62
2019-05-11T16:43:28.192Z,94935.34
2019-05-11T16:45:57.981Z,94934.20
2019-05-11T16:48:27.706Z,94936.83
2019-05-11T16:50:57.926Z,94936.98
2019-05-11T16:53:28.449Z,94936.26
2019-05-11T16:55:57.702Z,94932.47
2019-05-11T16:58:27.861Z,94931.70
2019-05-11T17:00:58.194Z,94931.13
2019-05-11T17:03:27.884Z,94934.36
2019-05-11T17:05:58.830Z,94943.51
2019-05-11T17:08:27.848Z,94948.88
2019-05-11T17:10:59.012Z,94943.84
2019-05-11T17:13:28.238Z,94947.45
2019-05-11T17:15:58.221Z,94943.41
2019-05-11T17:18:28.383Z,94952.95
2019-05-11T17:20:58.414Z,94956.09
2019-05-11T17:23:30.563Z,94955.91
2019-05-11T17:25:58.193Z,94955.23
2019-05-11T17:28:26.736Z,94958.48
2019-05-11T17:30:55.381Z,94968.67
2019-05-11T17:33:23.958Z,94965.50
2019-05-11T17:35:52.557Z,94965.82
2019-05-11T17:38:21.192Z,94966.56
2019-05-11T17:40:49.810Z,94973.27
2019-05-11T17:43:18.435Z,94970.52
2019-05-11T17:45:47.967Z,94974.73
2019-05-11T17:48:17.862Z,94974.59
2019-05-11T17:50:46.780Z,94981.33
2019-05-11T17:53:15.445Z,94988.91
2019-05-11T17:55:44.160Z,94986.22
2019-05-11T17:58:12.797Z,94996.41
2019-05-11T18:00:41.374Z,94990.85
2019-05-11T18:03:11.403Z,94999.30
2019-05-11T18:05:40.198Z,95001.28
2019-05-11T18:08:08.933Z,95007.67
2019-05-11T18:10:38.435Z,95013.19
2019-05-11T18:13:07.305Z,95011.45
2019-05-11T18:15:37.917Z,95013.13
2019-05-11T18:18:09.196Z,95016.84
2019-05-11T18:20:38.049Z,95017.53
2019-05-11T18:23:08.238Z,95018.58
2019-05-11T18:25:39.005Z,95025.20
2019-05-11T18:28:07.749Z,95028.80
2019-05-11T18:30:38.622Z,95034.69
2019-05-11T18:33:08.322Z,95033.16
2019-05-11T18:35:37.184Z,95043.66
2019-05-11T18:38:08.347Z,95038.73
2019-05-11T18:40:38.189Z,95039.89
2019-05-11T18:43:08.576Z,95042.66
2019-05-11T18:45:38.291Z,95039.95
2019-05-11T18:48:08.075Z,95044.04
2019-05-11T18:50:38.772Z,95052.47
2019-05-11T18:53:09.158Z,95051.80
2019-05-11T18:55:37.968Z,95059.25
2019-05-11T18:58:06.584Z,95054.69
2019-05-11T19:00:35.159Z,95053.56
2019-05-11T19:03:03.718Z,95052.85
2019-05-11T19:05:33.202Z,95054.27
2019-05-11T19:08:01.742Z,95055.70
2019-05-11T19:10:30.395Z,95058.91
2019-05-11T19:12:59.126Z,95057.41
2019-05-11T19:15:27.799Z,95060.13
2019-05-11T19:17:58.114Z,95062.82
2019-05-11T19:20:28.557Z,95063.86
2019-05-11T19:22:59.073Z,95065.29
2019-05-11T19:25:27.752Z,95068.39
2019-05-11T19:27:58.781Z,95069.37
2019-05-11T19:30:27.737Z,95074.97
2019-05-11T19:32:58.862Z,95073.30
2019-05-11T19:35:28.656Z,95075.92
2019-05-11T19:37:57.896Z,95073.80
2019-05-11T19:40:26.596Z,95067.03
2019-05-11T19:42:58.720Z,95071.27
2019-05-11T19:45:29.036Z,95067.48
2019-05-11T19:47:57.762Z,95071.80
2019-05-11T19:50:26.934Z,95074.36
2019-05-11T19:52:57.815Z,95067.56
2019-05-11T19:55:28.345Z,95065.86
2019-05-11T19:57:56.561Z,95065.49
2019-05-11T20:00:25.173Z,95075.00
2019-05-11T20:02:53.816Z,95068.98
2019-05-11T20:05:22.769Z,95068.95
2019-05-11T20:07:51.416Z,95072.83
2019-05-11T20:10:19.989Z,95075.73
2019-05-11T20:12:48.934Z,95072.69
2019-05-11T20:15:18.920Z,95068.81
2019-05-11T20:17:48.648Z,95073.08
2019-05-11T20:20:18.537Z,95076.11
2019-05-11T20:22:48.420Z,95075.28
2019-05-11T20:25:18.858Z,95081.69
2019-05-11T20:27:48.671Z,95082.11
2019-05-11T20:30:19.116Z,95085.56
2019-05-11T20:32:49.282Z,95087.33
2019-05-11T20:35:18.096Z,95086.91
2019-05-11T20:37:46.761Z,95088.19
2019-05-11T20:40:15.482Z,95093.80
2019-05-11T20:42:44.131Z,95092.09
2019-05-11T20:45:12.856Z,95090.00
2019-05-11T20:47:42.107Z,95096.97
2019-05-11T20:50:10.766Z,95097.05
2019-05-11T20:52:41.024Z,95094.95
2019-05-11T20:55:09.777Z,95096.31
2019-05-11T20:57:39.372Z,95101.49
2019-05-11T21:00:10.373Z,95102.05
2019-05-11T21:02:39.019Z,95101.80
2019-05-11T21:05:09.095Z,95105.38
2019-05-11T21:07:38.745Z,95104.32
2019-05-11T21:10:09.079Z,95110.48
2019-05-11T21:12:38.743Z,95110.55
2019-05-11T21:15:09.540Z,95114.59
2019-05-11T21:17:38.367Z,95115.63
2019-05-11T21:20:08.871Z,95119.66
2019-05-11T21:22:40.480Z,95121.03
2019-05-11T21:25:09.283Z,95123.27
2019-05-11T21:27:38.704Z,95122.48
2019-05-11T21:30:09.527Z,95118.73
2019-05-11T21:32:39.467Z,95121.47
2019-05-11T21:35:09.332Z,95122.47
2019-05-11T21:37:38.991Z,95127.30
2019-05-11T21:40:08.892Z,95131.66
2019-05-11T21:42:39.012Z,95128.73
2019-05-11T21:45:09.941Z,95131.84
2019-05-11T21:47:39.443Z,95131.11
2019-05-11T21:50:09.808Z,95131.19
2019-05-11T21:52:38.938Z,95137.67
2019-05-11T21:55:09.728Z,95131.34
2019-05-11T21:57:38.690Z,95136.11
2019-05-11T22:00:10.586Z,95139.64
2019-05-11T22:02:39.241Z,95139.27
2019-05-11T22:05:09.790Z,95143.17
2019-05-11T22:07:41.838Z,95141.57
2019-05-11T22:10:09.761Z,95142.03
2019-05-11T22:12:39.220Z,95144.25
2019-05-11T22:15:10.375Z,95142.56
2019-05-11T22:17:40.915Z,95149.83
2019-05-11T22:20:10.127Z,95150.28
2019-05-11T22:22:39.434Z,95151.16
2019-05-11T22:25:10.483Z,95158.89
2019-05-11T22:27:40.620Z,95160.23
2019-05-11T22:30:10.236Z,95155.59
2019-05-11T22:32:39.118Z,95157.77
2019-05-11T22:35:08.884Z,95160.44
2019-05-11T22:37:38.625Z,95159.61
2019-05-11T22:40:09.302Z,95166.45
2019-05-11T22:42:38.564Z,95164.78
2019-05-11T22:45:08.779Z,95165.78
2019-05-11T22:47:39.148Z,95173.06
2019-05-11T22:50:11.669Z,95169.67
2019-05-11T22:52:40.875Z,95169.30
2019-05-11T22:55:11.883Z,95160.36
2019-05-11T22:57:41.816Z,95162.13
2019-05-11T23:00:11.326Z,95167.67
2019-05-11T23:02:39.944Z,95167.23
2019-05-11T23:05:09.104Z,95170.23
2019-05-11T23:07:41.325Z,95166.46
2019-05-11T23:10:10.372Z,95166.11
2019-05-11T23:12:39.042Z,95172.11
2019-05-11T23:15:12.688Z,95170.83
2019-05-11T23:17:41.891Z,95169.56
2019-05-11T23:20:11.285Z,95172.59
2019-05-11T23:22:58.022Z,95171.38
2019-05-11T23:25:19.364Z,95168.83
2019-05-11T23:27:48.694Z,95170.98
2019-05-11T23:30:20.085Z,95171.44
2019-05-11T23:32:49.834Z,95172.31
2019-05-11T23:35:19.150Z,95172.36
2019-05-11T23:37:49.482Z,95174.91
2019-05-11T23:40:19.050Z,95174.95
2019-05-11T23:42:49.060Z,95180.06
2019-05-11T23:45:19.008Z,95172.88
2019-05-11T23:47:48.917Z,95180.98
2019-05-11T23:50:19.232Z,95180.14
2019-05-11T23:52:50.232Z,95181.42
2019-05-11T23:55:19.320Z,95178.88
2019-05-11T23:57:49.011Z,95181.47
